Time;durP1;ratioP1;P1;durP2;ratioP2;P2;SDS_P1;SDS_P2;PMS_P1;PMS_P2;Temp;Humidity;BMP_temperature;BMP_pressure;BME280_temperature;BME280_humidity;BME280_pressure;Samples;Min_cycle;Max_cycle;Signal;HPM_P1;HPM_P2
2024/03/22 00:03:09;;;;;;;12.07;6.18;;;;;;;10.58;57.16;101020.25;10417023;28;20049;-58
2024/03/22 00:08:10;;;;;;;13.63;6.93;;;;;;;10.46;57.26;101015.13;10415876;28;20045;-59
2024/03/22 00:13:11;;;;;;;11.38;5.60;;;;;;;10.40;57.58;101009.56;10421530;28;20049;-59
2024/03/22 00:18:11;;;;;;;8.80;5.25;;;;;;;10.31;58.03;101003.31;10400278;28;20041;-59
2024/03/22 00:23:12;;;;;;;11.55;5.95;;;;;;;10.20;58.14;101003.53;10415949;28;20392;-59
2024/03/22 00:28:12;;;;;;;16.20;6.03;;;;;;;10.13;58.44;101003.31;10419865;28;20385;-59
2024/03/22 00:33:13;;;;;;;11.50;5.63;;;;;;;10.10;58.76;101001.78;10419763;28;20045;-59
2024/03/22 00:38:13;;;;;;;12.07;5.03;;;;;;;10.16;58.69;100994.09;10412027;28;20045;-59
2024/03/22 00:43:14;;;;;;;11.38;5.50;;;;;;;10.15;58.59;100995.94;10418658;28;20495;-59
2024/03/22 00:48:15;;;;;;;10.57;5.15;;;;;;;10.01;58.74;100980.38;10417265;28;20128;-59
2024/03/22 00:53:16;;;;;;;11.57;5.60;;;;;;;9.94;59.21;100972.13;10415084;28;20049;-59
2024/03/22 00:58:18;;;;;;;9.57;5.53;;;;;;;9.89;59.54;100974.41;10416018;28;20568;-59
2024/03/22 01:03:19;;;;;;;11.02;5.15;;;;;;;9.75;59.54;100969.59;10415899;28;20065;-59
2024/03/22 01:08:20;;;;;;;13.68;5.57;;;;;;;9.62;59.81;100960.13;10419793;28;20053;-59
2024/03/22 01:13:20;;;;;;;12.40;5.40;;;;;;;9.52;60.29;100964.72;10418326;28;20099;-59
2024/03/22 01:18:21;;;;;;;14.15;6.10;;;;;;;9.57;60.20;100951.66;10424188;28;20049;-59
2024/03/22 01:23:21;;;;;;;10.32;5.00;;;;;;;9.56;60.17;100954.50;10425694;28;20070;-59
2024/03/22 01:28:22;;;;;;;12.18;5.95;;;;;;;9.56;60.24;100959.88;10428147;28;20048;-59
2024/03/22 01:33:22;;;;;;;12.20;6.50;;;;;;;9.51;60.18;100944.25;10425798;28;20046;-59
2024/03/22 01:38:23;;;;;;;18.92;6.45;;;;;;;9.46;60.17;100939.34;10428612;28;20045;-59
2024/03/22 01:43:23;;;;;;;11.02;6.18;;;;;;;9.39;60.51;100940.94;10428217;28;20098;-59
2024/03/22 01:48:24;;;;;;;12.13;5.18;;;;;;;9.33;60.76;100941.56;10425533;28;20522;-59
2024/03/22 01:53:25;;;;;;;14.25;6.30;;;;;;;9.26;60.58;100932.44;10429252;28;20049;-60
2024/03/22 01:58:25;;;;;;;11.50;5.63;;;;;;;9.17;60.91;100936.06;10427594;28;20056;-59
2024/03/22 02:03:26;;;;;;;12.07;5.78;;;;;;;9.04;61.30;100931.03;10423613;28;20466;-60
2024/03/22 02:08:26;;;;;;;13.27;6.55;;;;;;;8.89;61.82;100926.22;10422136;28;20056;-59
2024/03/22 02:13:27;;;;;;;15.20;6.07;;;;;;;8.83;61.59;100913.41;10422932;28;20498;-60
2024/03/22 02:18:27;;;;;;;21.52;11.18;;;;;;;8.77;61.58;100905.97;10421595;28;20053;-59
2024/03/22 02:23:35;;;;;;;50.42;23.42;;;;;;;8.66;62.10;100906.16;10416628;28;20060;-58
2024/03/22 02:28:35;;;;;;;35.03;18.45;;;;;;;8.59;61.93;100894.34;10431901;28;20103;-59
2024/03/22 02:33:36;;;;;;;29.20;13.73;;;;;;;8.55;62.60;100883.13;10423317;28;20385;-58
2024/03/22 02:38:36;;;;;;;24.80;11.75;;;;;;;8.58;62.42;100879.28;10423307;28;20067;-59
2024/03/22 02:43:37;;;;;;;20.05;9.60;;;;;;;8.49;62.42;100886.38;10430239;28;22385;-59
2024/03/22 02:48:37;;;;;;;17.50;8.52;;;;;;;8.48;62.25;100880.16;10424503;28;20049;-59
2024/03/22 02:53:38;;;;;;;17.55;7.82;;;;;;;8.53;62.48;100877.91;10423687;28;20045;-59
2024/03/22 02:58:38;;;;;;;16.13;7.78;;;;;;;8.40;62.62;100882.72;10428417;28;20087;-59
2024/03/22 03:03:39;;;;;;;13.45;6.60;;;;;;;8.29;63.29;100881.09;10426116;28;20072;-59
2024/03/22 03:08:40;;;;;;;15.43;6.60;;;;;;;8.30;62.94;100869.38;10417614;28;20045;-59
2024/03/22 03:13:40;;;;;;;16.98;6.45;;;;;;;8.33;63.11;100854.84;10422920;28;20049;-59
2024/03/22 03:18:41;;;;;;;15.85;6.55;;;;;;;8.26;63.02;100857.28;10419228;28;20053;-59
2024/03/22 03:23:41;;;;;;;17.67;7.28;;;;;;;8.30;63.23;100861.34;10421311;28;20057;-59
2024/03/22 03:28:42;;;;;;;16.40;7.45;;;;;;;8.31;62.96;100854.13;10421345;28;20048;-59
2024/03/22 03:33:42;;;;;;;15.52;6.97;;;;;;;8.33;62.75;100849.47;10421960;28;20076;-60
2024/03/22 03:38:43;;;;;;;18.27;7.13;;;;;;;8.33;62.88;100842.31;10421099;28;20060;-60
2024/03/22 03:43:43;;;;;;;15.48;7.35;;;;;;;8.33;62.88;100842.31;10414344;28;20511;-60
2024/03/22 03:48:44;;;;;;;12.82;6.20;;;;;;;8.12;63.74;100845.22;10423710;28;20053;-60
2024/03/22 03:53:44;;;;;;;18.08;7.47;;;;;;;7.99;64.03;100836.66;10418713;28;20570;-59
2024/03/22 03:58:47;;;;;;;16.98;7.65;;;;;;;8.13;63.57;100828.16;10420105;28;20057;-59
2024/03/22 04:03:49;;;;;;;16.52;6.65;;;;;;;8.24;63.21;100824.44;10424423;28;20041;-60
2024/03/22 04:08:49;;;;;;;16.98;7.28;;;;;;;8.34;63.57;100827.06;10416782;28;20037;-59
2024/03/22 04:13:50;;;;;;;19.45;7.68;;;;;;;8.39;63.24;100815.91;10417312;28;20044;-60
2024/03/22 04:18:50;;;;;;;18.83;8.65;;;;;;;8.39;63.77;100808.69;10421775;28;20050;-59
2024/03/22 04:23:51;;;;;;;16.20;7.28;;;;;;;8.33;64.03;100811.97;10402223;28;20120;-60
2024/03/22 04:28:52;;;;;;;24.65;8.75;;;;;;;8.30;64.09;100812.28;10422064;28;20048;-60
2024/03/22 04:33:52;;;;;;;15.90;7.30;;;;;;;8.21;64.12;100813.19;10424656;28;20044;-60
2024/03/22 04:38:53;;;;;;;17.58;8.05;;;;;;;8.29;64.08;100807.91;10419801;28;20045;-57
2024/03/22 04:43:53;;;;;;;24.10;8.80;;;;;;;8.38;64.09;100817.75;10426361;28;20443;-57
2024/03/22 04:48:54;;;;;;;19.65;8.65;;;;;;;8.44;63.90;100813.66;10415908;28;20041;-57
2024/03/22 04:53:54;;;;;;;19.15;8.05;;;;;;;8.51;64.01;100809.34;10415893;28;20056;-57
2024/03/22 04:58:55;;;;;;;18.50;8.02;;;;;;;8.56;63.81;100811.59;10414448;28;20037;-57
2024/03/22 05:03:55;;;;;;;20.15;8.15;;;;;;;8.62;64.00;100805.63;10416248;28;20117;-57
2024/03/22 05:08:56;;;;;;;21.23;8.80;;;;;;;8.71;63.67;100794.84;10413254;28;20373;-58
2024/03/22 05:13:57;;;;;;;22.77;9.63;;;;;;;8.83;63.92;100794.63;10419491;28;20041;-58
2024/03/22 05:18:59;;;;;;;25.35;10.10;;;;;;;8.91;63.75;100806.25;10410181;28;20053;-58
2024/03/22 05:23:59;;;;;;;21.80;10.55;;;;;;;9.07;63.66;100802.03;10417078;28;20057;-58
2024/03/22 05:28:59;;;;;;;21.27;9.13;;;;;;;9.20;63.53;100807.84;10401330;28;20041;-61
2024/03/22 05:34:00;;;;;;;17.13;8.05;;;;;;;9.35;63.38;100788.50;10415414;28;20560;-60
2024/03/22 05:39:00;;;;;;;20.52;9.27;;;;;;;9.44;63.24;100784.84;10419691;28;20414;-58
2024/03/22 05:44:01;;;;;;;21.83;10.75;;;;;;;9.48;63.17;100791.59;10421351;28;20049;-58
2024/03/22 05:49:01;;;;;;;21.85;9.95;;;;;;;9.48;63.39;100789.75;10411505;28;20099;-68
2024/03/22 05:54:02;;;;;;;24.77;10.63;;;;;;;9.58;63.62;100786.97;10415261;28;20561;-65
2024/03/22 05:59:03;;;;;;;23.08;10.32;;;;;;;9.76;63.38;100773.47;10418737;28;20045;-68
2024/03/22 06:04:04;;;;;;;26.77;11.27;;;;;;;9.97;62.91;100761.47;10423185;28;20068;-67
2024/03/22 06:09:08;;;;;;;25.92;11.45;;;;;;;10.16;62.89;100766.59;10424422;28;20041;-66
2024/03/22 06:14:09;;;;;;;25.88;11.95;;;;;;;10.31;63.11;100748.88;10416921;28;20051;-67
2024/03/22 06:19:10;;;;;;;23.17;11.10;;;;;;;10.57;62.61;100752.44;10431582;28;20112;-66
2024/03/22 06:24:11;;;;;;;28.17;10.38;;;;;;;10.73;62.89;100747.06;10417215;28;20045;-67
2024/03/22 06:29:12;;;;;;;26.02;12.18;;;;;;;10.91;62.81;100744.22;10425056;28;20069;-68
2024/03/22 06:34:13;;;;;;;20.50;10.63;;;;;;;11.01;62.67;100734.13;10420148;28;20060;-69
2024/03/22 06:39:14;;;;;;;24.50;11.00;;;;;;;11.19;63.02;100735.78;10407836;28;20049;-69
2024/03/22 06:44:15;;;;;;;24.50;12.15;;;;;;;11.34;62.79;100728.69;10417457;28;20124;-66
2024/03/22 06:49:15;;;;;;;23.00;11.00;;;;;;;11.48;62.69;100727.16;10424819;28;20119;-69
2024/03/22 06:54:16;;;;;;;20.95;9.90;;;;;;;11.53;62.90;100727.44;10416340;28;20044;-66
2024/03/22 06:59:17;;;;;;;22.30;11.15;;;;;;;11.70;62.94;100717.47;10419536;28;20045;-67
2024/03/22 07:04:17;;;;;;;27.13;10.73;;;;;;;11.73;62.82;100714.44;10418179;28;20049;-69
2024/03/22 07:09:18;;;;;;;21.63;11.40;;;;;;;11.74;63.30;100715.28;10420637;28;20897;-68
2024/03/22 07:14:18;;;;;;;21.48;10.00;;;;;;;11.88;62.98;100706.47;10418037;28;20053;-66
2024/03/22 07:19:20;;;;;;;22.80;10.40;;;;;;;11.87;63.29;100700.25;10438189;28;20045;-69
2024/03/22 07:24:23;;;;;;;19.13;9.95;;;;;;;11.95;63.10;100703.91;10420226;28;20051;-68
2024/03/22 07:29:24;;;;;;;23.23;10.48;;;;;;;12.10;62.74;100705.72;10425813;28;20068;-68
2024/03/22 07:34:24;;;;;;;18.30;10.15;;;;;;;12.27;63.02;100702.91;10421805;28;20403;-66
2024/03/22 07:39:25;;;;;;;19.50;9.60;;;;;;;12.41;62.52;100704.00;10424875;28;20041;-66
2024/03/22 07:44:28;;;;;;;17.77;8.95;;;;;;;12.54;62.45;100706.94;10420075;28;20502;-68
2024/03/22 07:49:29;;;;;;;19.73;8.88;;;;;;;12.61;61.96;100701.66;10418543;28;20393;-69
2024/03/22 07:54:30;;;;;;;17.33;7.82;;;;;;;12.71;61.69;100691.44;10419601;28;20072;-66
2024/03/22 07:59:30;;;;;;;20.25;9.48;;;;;;;12.93;61.64;100683.50;10419938;28;20487;-63
2024/03/22 08:04:30;;;;;;;19.08;8.32;;;;;;;13.21;61.01;100678.31;10419843;28;20041;-68
2024/03/22 08:09:31;;;;;;;17.27;8.85;;;;;;;13.36;60.90;100670.28;10417450;28;20052;-68
2024/03/22 08:14:32;;;;;;;18.73;8.30;;;;;;;13.44;60.48;100665.59;10418263;28;20045;-69
2024/03/22 08:19:32;;;;;;;19.50;9.27;;;;;;;13.46;60.57;100657.31;10418500;28;20126;-66
2024/03/22 08:24:33;;;;;;;18.45;8.55;;;;;;;13.53;60.29;100658.25;10423645;28;20041;-68
2024/03/22 08:29:34;;;;;;;14.98;8.27;;;;;;;13.68;60.05;100658.22;10421500;28;20107;-68
2024/03/22 08:34:34;;;;;;;18.38;7.13;;;;;;;13.65;59.64;100648.63;10414833;28;20056;-67
2024/03/22 08:39:35;;;;;;;16.13;9.25;;;;;;;13.71;59.54;100644.34;10422794;28;20446;-68
2024/03/22 08:44:36;;;;;;;16.02;8.15;;;;;;;13.93;58.93;100637.13;10413969;28;20399;-68
2024/03/22 08:49:36;;;;;;;14.00;8.15;;;;;;;13.95;58.77;100640.47;10426273;28;20128;-68
2024/03/22 08:54:37;;;;;;;11.98;6.82;;;;;;;14.17;58.41;100630.50;10426232;28;20034;-67
2024/03/22 08:59:38;;;;;;;11.45;6.75;;;;;;;14.22;58.19;100617.25;10411527;28;20061;-67
2024/03/22 09:04:38;;;;;;;15.38;7.07;;;;;;;14.50;57.50;100613.75;10418918;28;20037;-69
2024/03/22 09:09:39;;;;;;;17.77;7.43;;;;;;;14.74;56.93;100609.81;10416159;28;20061;-67
2024/03/22 09:14:40;;;;;;;15.90;8.60;;;;;;;14.91;56.74;100593.25;10411981;28;20045;-69
2024/03/22 09:19:41;;;;;;;13.65;7.30;;;;;;;15.25;56.18;100593.25;10413936;28;20124;-64
2024/03/22 09:24:41;;;;;;;13.63;7.72;;;;;;;15.66;55.17;100602.41;10412693;28;20060;-64
2024/03/22 09:29:43;;;;;;;13.85;6.80;;;;;;;15.82;55.06;100585.78;10417801;28;20409;-64
2024/03/22 09:34:44;;;;;;;12.32;6.78;;;;;;;16.08;54.41;100581.47;10422616;28;20040;-63
2024/03/22 09:39:47;;;;;;;11.95;6.78;;;;;;;16.29;54.18;100568.75;10423109;28;20055;-63
2024/03/22 09:44:48;;;;;;;13.57;6.28;;;;;;;16.34;54.07;100555.41;10425638;28;20491;-63
2024/03/22 09:49:49;;;;;;;12.35;6.40;;;;;;;16.42;53.72;100553.28;10438605;28;20064;-64
2024/03/22 09:54:51;;;;;;;11.18;4.88;;;;;;;16.53;53.65;100542.84;10420657;28;20045;-63
2024/03/22 09:59:51;;;;;;;8.65;4.90;;;;;;;16.84;52.87;100536.78;10429184;28;20041;-63
2024/03/22 10:04:52;;;;;;;10.00;4.38;;;;;;;16.85;52.79;100522.16;10425080;28;20075;-64
2024/03/22 10:09:52;;;;;;;9.98;4.18;;;;;;;17.10;52.23;100522.28;10426454;28;20091;-66
2024/03/22 10:14:53;;;;;;;11.23;4.07;;;;;;;17.38;51.51;100508.38;10427117;28;20097;-69
2024/03/22 10:19:54;;;;;;;8.20;4.40;;;;;;;17.78;50.18;100501.84;10407128;28;20041;-68
2024/03/22 10:24:55;;;;;;;6.45;4.32;;;;;;;18.01;49.84;100490.44;10403724;28;20123;-63
2024/03/22 10:29:57;;;;;;;7.68;4.38;;;;;;;19.13;47.63;100482.16;10406177;28;20044;-63
2024/03/22 10:34:58;;;;;;;6.82;4.13;;;;;;;20.08;45.78;100464.19;10398573;28;20406;-65
2024/03/22 10:40:07;;;;;;;8.02;3.72;;;;;;;20.65;44.18;100463.63;10403561;28;20407;-65
2024/03/22 10:45:09;;;;;;;10.00;3.00;;;;;;;21.55;42.44;100453.94;10401911;28;20050;-65
2024/03/22 10:50:11;;;;;;;7.75;3.92;;;;;;;23.04;40.10;100447.13;10411028;28;20049;-64
2024/03/22 10:55:22;;;;;;;9.95;4.15;;;;;;;21.71;42.49;100446.00;10404926;28;20037;-64
2024/03/22 11:00:33;;;;;;;7.07;4.25;;;;;;;21.20;43.55;100449.44;10409749;28;20049;-65
2024/03/22 11:05:34;;;;;;;5.65;3.40;;;;;;;21.14;43.58;100433.19;10406125;28;20030;-64
2024/03/22 11:10:35;;;;;;;7.45;3.78;;;;;;;20.84;44.00;100431.50;10407389;28;20128;-69
2024/03/22 11:15:36;;;;;;;6.63;4.43;;;;;;;21.02;43.19;100413.28;10399465;28;20059;-68
2024/03/22 11:20:37;;;;;;;6.38;4.05;;;;;;;21.50;42.50;100401.06;10403431;28;20054;-69
2024/03/22 11:25:37;;;;;;;8.95;4.90;;;;;;;21.00;43.50;100394.38;10408358;28;20094;-67
2024/03/22 11:30:38;;;;;;;8.90;4.78;;;;;;;20.38;44.35;100390.38;10405876;28;20049;-69
2024/03/22 11:35:38;;;;;;;8.38;5.10;;;;;;;20.25;44.93;100389.81;10404690;28;20049;-68
2024/03/22 11:40:39;;;;;;;9.15;5.22;;;;;;;19.75;45.56;100375.56;10404779;28;20041;-69
2024/03/22 11:45:40;;;;;;;9.35;5.28;;;;;;;19.61;45.63;100368.66;10401136;28;20051;-67
2024/03/22 11:50:41;;;;;;;8.63;5.07;;;;;;;20.00;45.25;100360.84;10405256;28;20056;-69
2024/03/22 11:55:41;;;;;;;9.48;5.18;;;;;;;20.11;45.28;100351.00;10401820;28;20049;-68
2024/03/22 12:00:42;;;;;;;8.32;4.78;;;;;;;20.73;44.10;100347.66;10407066;28;20419;-69
2024/03/22 12:05:42;;;;;;;8.73;5.25;;;;;;;21.33;43.23;100338.13;10398293;28;20080;-69
2024/03/22 12:10:43;;;;;;;9.68;4.95;;;;;;;21.88;42.22;100318.22;10404251;28;20499;-69
2024/03/22 12:15:44;;;;;;;6.45;4.53;;;;;;;22.17;41.79;100307.09;10402187;28;20037;-70
2024/03/22 12:20:44;;;;;;;7.47;5.05;;;;;;;22.27;41.67;100300.94;10402167;28;20405;-70
2024/03/22 12:25:45;;;;;;;7.35;5.22;;;;;;;22.27;41.63;100299.03;10397170;28;20135;-68
2024/03/22 12:30:46;;;;;;;8.75;5.13;;;;;;;21.46;43.21;100296.78;10396319;28;20503;-65
2024/03/22 12:35:48;;;;;;;10.45;5.10;;;;;;;21.27;42.94;100301.66;10399035;28;20045;-69
2024/03/22 12:40:49;;;;;;;12.30;5.18;;;;;;;20.71;43.99;100285.06;10404650;28;20518;-68
2024/03/22 12:45:50;;;;;;;10.95;5.95;;;;;;;20.39;44.67;100288.25;10393133;28;20042;-59
2024/03/22 12:50:51;;;;;;;10.82;5.43;;;;;;;20.20;44.73;100278.59;10401030;28;20601;-59
2024/03/22 12:55:51;;;;;;;6.13;4.65;;;;;;;20.28;44.35;100271.91;10404715;28;20072;-59
2024/03/22 13:00:52;;;;;;;8.50;5.28;;;;;;;20.31;44.21;100269.53;10402012;28;20336;-61
2024/03/22 13:05:52;;;;;;;9.30;4.90;;;;;;;20.33;44.24;100256.47;10408944;28;20061;-60
2024/03/22 13:10:53;;;;;;;11.70;5.68;;;;;;;20.32;44.31;100254.81;10389326;28;20038;-60
2024/03/22 13:15:56;;;;;;;11.80;4.97;;;;;;;20.40;44.56;100240.78;10401822;28;20055;-59
2024/03/22 13:20:57;;;;;;;13.27;5.20;;;;;;;20.34;44.65;100239.03;10402892;28;20042;-59
2024/03/22 13:26:03;;;;;;;9.18;4.93;;;;;;;20.53;44.21;100236.09;10388867;28;20061;-60
2024/03/22 13:31:07;;;;;;;6.93;4.90;;;;;;;20.76;43.96;100218.78;10406670;28;20053;-61
2024/03/22 13:36:08;;;;;;;9.38;5.28;;;;;;;20.69;44.07;100212.66;10399208;28;20049;-61
2024/03/22 13:41:09;;;;;;;8.93;4.68;;;;;;;20.58;44.31;100196.06;10397690;28;20037;-59
2024/03/22 13:46:12;;;;;;;10.32;4.72;;;;;;;20.27;44.87;100202.84;10404363;28;20471;-59
2024/03/22 13:51:12;;;;;;;11.77;4.53;;;;;;;20.07;44.90;100203.28;10411408;28;20507;-60
2024/03/22 13:56:13;;;;;;;6.78;3.95;;;;;;;19.92;45.11;100205.69;10399120;28;20061;-67
2024/03/22 14:01:13;;;;;;;8.77;4.53;;;;;;;19.95;45.20;100189.69;10412644;28;20064;-70
2024/03/22 14:06:14;;;;;;;6.35;4.15;;;;;;;19.83;44.91;100177.97;10398849;28;20049;-66
2024/03/22 14:11:15;;;;;;;11.57;4.43;;;;;;;19.67;45.63;100173.22;10380325;28;20055;-67
2024/03/22 14:16:15;;;;;;;10.73;5.00;;;;;;;19.55;45.46;100162.34;10390409;28;20046;-68
2024/03/22 14:21:19;;;;;;;11.45;5.18;;;;;;;19.54;45.82;100161.50;10385247;28;20046;-69
2024/03/22 14:26:20;;;;;;;7.43;4.10;;;;;;;19.55;45.82;100155.00;10399713;28;20049;-69
2024/03/22 14:31:20;;;;;;;8.18;4.32;;;;;;;19.45;45.68;100149.34;10412664;28;20112;-69
2024/03/22 14:36:21;;;;;;;9.95;5.50;;;;;;;19.34;46.14;100144.72;10406724;28;20064;-66
2024/03/22 14:41:22;;;;;;;12.32;4.88;;;;;;;19.38;46.17;100129.56;10403544;28;20045;-70
2024/03/22 14:46:24;;;;;;;11.27;4.95;;;;;;;19.40;46.00;100128.22;10409068;28;20094;-69
2024/03/22 14:51:25;;;;;;;8.70;5.00;;;;;;;19.34;46.20;100114.75;10407305;28;20909;-67
2024/03/22 14:56:25;;;;;;;10.13;4.97;;;;;;;19.29;46.54;100107.25;10390692;28;20048;-67
2024/03/22 15:01:26;;;;;;;9.68;4.75;;;;;;;19.34;46.44;100090.22;10407897;28;20047;-69
2024/03/22 15:06:29;;;;;;;8.75;5.43;;;;;;;19.40;46.71;100089.25;10404104;28;20050;-58
2024/03/22 15:11:30;;;;;;;12.07;5.20;;;;;;;19.42;46.40;100070.75;10403058;28;20364;-60
2024/03/22 15:16:30;;;;;;;11.20;5.32;;;;;;;19.40;46.15;100076.44;10404113;28;20045;-57
2024/03/22 15:21:31;;;;;;;12.60;6.30;;;;;;;19.35;46.36;100049.09;10405870;28;20053;-58
2024/03/22 15:26:32;;;;;;;11.73;6.32;;;;;;;19.36;46.76;100041.72;10387595;28;20092;-62
2024/03/22 15:31:33;;;;;;;9.13;6.38;;;;;;;19.42;46.49;100033.41;10409760;28;20057;-60
2024/03/22 15:36:33;;;;;;;13.82;7.43;;;;;;;19.51;46.65;100030.28;10404450;28;20727;-69
2024/03/22 15:41:34;;;;;;;14.52;8.00;;;;;;;19.57;46.59;100021.97;10410621;28;20049;-64
2024/03/22 15:46:34;;;;;;;10.77;6.63;;;;;;;19.47;46.89;100007.31;10407709;28;20554;-68
2024/03/22 15:51:35;;;;;;;14.63;7.72;;;;;;;19.49;46.41;100003.28;10415604;28;20049;-69
2024/03/22 15:56:35;;;;;;;13.13;8.05;;;;;;;19.57;46.41;99991.16;10389237;28;20059;-68
2024/03/22 16:01:36;;;;;;;14.68;8.75;;;;;;;19.54;46.97;99984.28;10405357;28;20059;-69
2024/03/22 16:06:36;;;;;;;15.00;8.77;;;;;;;19.82;46.07;99974.44;10406536;28;20495;-69
2024/03/22 16:11:37;;;;;;;12.70;6.88;;;;;;;20.40;45.05;99966.94;10403323;28;20046;-68
2024/03/22 16:16:37;;;;;;;17.98;9.32;;;;;;;20.91;44.78;99964.94;10403837;28;20051;-70
2024/03/22 16:21:38;;;;;;;14.60;8.38;;;;;;;21.32;44.11;99957.19;10408016;28;20041;-69
2024/03/22 16:26:39;;;;;;;12.32;7.40;;;;;;;21.59;43.52;99949.03;10411648;28;20128;-67
2024/03/22 16:31:42;;;;;;;17.00;8.13;;;;;;;21.19;44.20;99946.69;10406464;28;20041;-69
2024/03/22 16:36:43;;;;;;;16.00;7.47;;;;;;;20.95;44.25;99949.69;10406086;28;20045;-69
2024/03/22 16:41:44;;;;;;;14.35;7.82;;;;;;;20.87;43.99;99946.53;10399468;28;20144;-64
2024/03/22 16:46:44;;;;;;;12.82;7.00;;;;;;;20.54;44.46;99946.38;10405726;28;20068;-66
2024/03/22 16:51:45;;;;;;;14.35;6.88;;;;;;;20.50;44.61;99945.22;10409246;28;20049;-68
2024/03/22 16:56:45;;;;;;;14.73;8.05;;;;;;;20.55;44.29;99930.81;10411784;28;20380;-64
2024/03/22 17:01:46;;;;;;;15.30;7.70;;;;;;;20.52;44.63;99925.88;10409673;28;20049;-69
2024/03/22 17:06:46;;;;;;;16.52;8.98;;;;;;;20.29;45.11;99930.44;10405733;28;20053;-68
2024/03/22 17:11:47;;;;;;;12.90;8.00;;;;;;;19.95;45.44;99932.38;10405555;28;20095;-66
2024/03/22 17:16:50;;;;;;;17.00;8.13;;;;;;;19.64;46.52;99931.00;10403585;28;20051;-68
2024/03/22 17:21:51;;;;;;;13.77;7.50;;;;;;;19.47;46.59;99925.53;10407894;28;20049;-70
2024/03/22 17:26:51;;;;;;;12.65;7.70;;;;;;;19.13;47.06;99931.72;10406608;28;20585;-67
2024/03/22 17:31:52;;;;;;;10.68;7.50;;;;;;;18.77;47.53;99933.69;10407694;28;20484;-68
2024/03/22 17:36:53;;;;;;;11.60;6.57;;;;;;;18.55;47.88;99930.78;10404330;28;20052;-67
2024/03/22 17:41:53;;;;;;;15.63;7.03;;;;;;;18.30;47.97;99933.75;10407289;28;20044;-69
2024/03/22 17:46:54;;;;;;;12.45;6.53;;;;;;;18.12;48.11;99920.28;10407712;28;20042;-66
2024/03/22 17:51:54;;;;;;;13.40;6.80;;;;;;;17.91;48.40;99918.94;10407469;28;20468;-68
2024/03/22 17:56:55;;;;;;;13.40;7.63;;;;;;;17.76;48.59;99920.22;10403194;28;20045;-65
2024/03/22 18:01:55;;;;;;;14.93;7.13;;;;;;;17.55;48.88;99927.00;10411870;28;20060;-69
2024/03/22 18:06:56;;;;;;;14.48;7.60;;;;;;;17.39;48.87;99914.09;10404582;28;20044;-69
2024/03/22 18:11:56;;;;;;;13.40;7.90;;;;;;;17.18;49.59;99908.13;10413339;28;20041;-66
2024/03/22 18:16:57;;;;;;;15.27;8.60;;;;;;;16.97;50.02;99903.19;10408950;28;20107;-68
2024/03/22 18:21:58;;;;;;;20.58;10.00;;;;;;;16.74;50.43;99898.44;10409733;28;20040;-63
2024/03/22 18:26:58;;;;;;;21.60;12.15;;;;;;;16.46;51.09;99899.81;10405357;28;20049;-63
2024/03/22 18:31:59;;;;;;;17.38;11.55;;;;;;;16.21;51.46;99898.00;10404132;28;20649;-63
2024/03/22 18:36:59;;;;;;;24.63;10.68;;;;;;;15.98;52.03;99892.38;10401142;28;20179;-61
2024/03/22 18:42:00;;;;;;;20.02;10.05;;;;;;;15.73;52.51;99893.19;10405368;28;20045;-61
2024/03/22 18:47:01;;;;;;;20.85;9.40;;;;;;;15.48;52.96;99887.72;10404226;28;20499;-61
2024/03/22 18:52:02;;;;;;;50.63;21.17;;;;;;;15.23;53.47;99875.00;10403360;28;20041;-61
2024/03/22 18:57:03;;;;;;;35.50;17.00;;;;;;;14.95;54.23;99883.50;10403751;28;20395;-61
2024/03/22 19:02:04;;;;;;;19.58;10.95;;;;;;;14.75;54.90;99871.94;10412455;28;20041;-63
2024/03/22 19:07:04;;;;;;;23.23;11.23;;;;;;;14.59;55.40;99868.69;10408020;28;20581;-62
2024/03/22 19:12:06;;;;;;;20.80;10.43;;;;;;;14.44;55.51;99863.50;10412938;28;20546;-61
2024/03/22 19:17:08;;;;;;;22.92;10.20;;;;;;;14.26;55.99;99863.34;10426334;28;20042;-62
2024/03/22 19:22:09;;;;;;;23.98;10.43;;;;;;;14.05;56.48;99853.63;10397640;28;20044;-61
2024/03/22 19:27:09;;;;;;;16.00;9.80;;;;;;;13.95;56.73;99845.94;10397157;28;20419;-64
2024/03/22 19:32:09;;;;;;;19.63;10.98;;;;;;;13.81;57.04;99849.72;10409991;28;20049;-62
2024/03/22 19:37:10;;;;;;;21.63;11.55;;;;;;;13.65;57.17;99851.78;10416987;28;20051;-63
2024/03/22 19:42:11;;;;;;;19.80;10.82;;;;;;;13.38;57.66;99850.94;10410721;28;20668;-62
2024/03/22 19:47:11;;;;;;;19.92;11.07;;;;;;;13.20;58.57;99839.91;10405774;28;20499;-64
2024/03/22 19:52:12;;;;;;;19.30;9.77;;;;;;;13.14;58.70;99836.16;10422366;28;20084;-64
2024/03/22 19:57:13;;;;;;;19.48;10.50;;;;;;;13.01;58.76;99834.28;10408378;28;20045;-63
2024/03/22 20:02:14;;;;;;;22.08;10.80;;;;;;;12.90;58.72;99832.19;10397687;28;20046;-65
2024/03/22 20:07:15;;;;;;;17.00;12.13;;;;;;;12.78;59.13;99826.53;10398377;28;20443;-63
2024/03/22 20:12:16;;;;;;;21.08;10.38;;;;;;;12.60;59.45;99823.56;10401779;28;20044;-64
2024/03/22 20:17:16;;;;;;;17.05;10.32;;;;;;;12.53;59.29;99825.44;10408468;28;20450;-63
2024/03/22 20:22:17;;;;;;;19.27;10.93;;;;;;;12.42;60.00;99821.44;10405249;28;20100;-63
2024/03/22 20:27:18;;;;;;;16.50;10.90;;;;;;;12.31;59.56;99820.16;10398625;28;20079;-62
2024/03/22 20:32:18;;;;;;;24.13;11.63;;;;;;;12.16;60.22;99817.56;10401570;28;20064;-63
2024/03/22 20:37:19;;;;;;;22.40;11.32;;;;;;;12.09;60.47;99809.47;10402342;28;20049;-63
2024/03/22 20:42:19;;;;;;;18.52;11.23;;;;;;;11.97;60.61;99812.94;10405295;28;20136;-62
2024/03/22 20:47:20;;;;;;;22.50;11.35;;;;;;;11.81;60.72;99801.41;10402125;28;20114;-63
2024/03/22 20:52:22;;;;;;;21.38;11.23;;;;;;;11.76;60.87;99789.56;10404587;28;20053;-63
2024/03/22 20:57:24;;;;;;;18.30;9.77;;;;;;;11.65;61.33;99791.78;10401494;28;20037;-65
2024/03/22 21:02:25;;;;;;;15.50;8.95;;;;;;;11.57;61.53;99789.25;10406841;28;20064;-65
2024/03/22 21:07:25;;;;;;;17.20;8.70;;;;;;;11.46;61.79;99787.91;10393292;28;20045;-65
2024/03/22 21:12:26;;;;;;;15.70;8.93;;;;;;;11.36;61.73;99787.44;10400882;28;20049;-64
2024/03/22 21:17:27;;;;;;;16.95;9.07;;;;;;;11.28;61.91;99776.81;10400498;28;20139;-64
2024/03/22 21:22:27;;;;;;;15.38;8.38;;;;;;;11.20;61.91;99774.28;10402377;28;20136;-64
2024/03/22 21:27:27;;;;;;;19.40;8.75;;;;;;;11.11;61.91;99768.19;10398011;28;20083;-64
2024/03/22 21:32:29;;;;;;;21.40;10.88;;;;;;;11.01;62.09;99765.00;10408049;28;20049;-65
2024/03/22 21:37:30;;;;;;;17.08;9.68;;;;;;;10.85;62.69;99766.91;10406858;28;20049;-65
2024/03/22 21:42:30;;;;;;;19.25;9.35;;;;;;;10.64;63.45;99764.22;10406039;28;20056;-66
2024/03/22 21:47:31;;;;;;;12.88;7.90;;;;;;;10.54;64.20;99759.16;10405613;28;20048;-65
2024/03/22 21:52:31;;;;;;;17.88;8.30;;;;;;;10.49;63.62;99742.78;10415027;28;20052;-66
2024/03/22 21:57:32;;;;;;;11.50;7.95;;;;;;;10.48;63.58;99739.25;10401609;28;20083;-65
2024/03/22 22:02:33;;;;;;;14.60;8.73;;;;;;;10.42;63.58;99734.63;10404115;28;20325;-65
2024/03/22 22:07:34;;;;;;;17.45;8.30;;;;;;;10.28;63.69;99730.09;10399502;28;20423;-64
2024/03/22 22:12:34;;;;;;;18.92;7.53;;;;;;;10.30;63.78;99715.47;10403399;28;20088;-64
2024/03/22 22:17:35;;;;;;;14.85;8.50;;;;;;;10.25;63.62;99714.38;10403701;28;20083;-64
2024/03/22 22:22:36;;;;;;;16.00;8.52;;;;;;;10.01;64.34;99724.44;10405508;28;20385;-64
2024/03/22 22:27:36;;;;;;;11.35;7.05;;;;;;;9.90;64.79;99706.13;10404949;28;20053;-61
2024/03/22 22:32:37;;;;;;;11.57;7.47;;;;;;;9.94;64.87;99707.41;10404812;28;20049;-61
2024/03/22 22:37:38;;;;;;;12.45;6.65;;;;;;;9.99;64.64;99712.19;10400986;28;20130;-61
2024/03/22 22:42:38;;;;;;;15.13;6.70;;;;;;;10.02;64.58;99712.66;10403034;28;20485;-61
2024/03/22 22:47:39;;;;;;;12.85;6.50;;;;;;;10.04;64.41;99705.25;10403998;28;20056;-60
2024/03/22 22:52:39;;;;;;;17.80;7.00;;;;;;;10.01;64.25;99699.41;10399172;28;20057;-60
2024/03/22 22:57:40;;;;;;;14.70;7.72;;;;;;;9.94;64.47;99688.59;10403543;28;20041;-60